sensor_id;sensor_type;location;lat;lon;timestamp;temperature;humidity
20795;DHT22;28087;-33.874;151.240;2023-03-01T00:01:48;27.30;99.90
20795;DHT22;28087;-33.874;151.240;2023-03-01T00:04:24;27.30;99.90
20795;DHT22;28087;-33.874;151.240;2023-03-01T00:07:01;27.30;99.90
20795;DHT22;28087;-33.874;151.240;2023-03-01T00:09:38;27.30;99.90
20795;DHT22;28087;-33.874;151.240;2023-03-01T00:12:17;27.40;99.90
20795;DHT22;28087;-33.874;151.240;2023-03-01T00:14:53;27.40;99.90
20795;DHT22;28087;-33.874;151.240;2023-03-01T00:17:29;27.40;99.90
20795;DHT22;28087;-33.874;151.240;2023-03-01T00:20:05;27.60;99.90
20795;DHT22;28087;-33.874;151.240;2023-03-01T00:22:42;27.70;99.90
20795;DHT22;28087;-33.874;151.240;2023-03-01T00:25:17;27.70;99.90
20795;DHT22;28087;-33.874;151.240;2023-03-01T00:27:55;27.80;99.90
20795;DHT22;28087;-33.874;151.240;2023-03-01T00:30:32;27.90;99.90
20795;DHT22;28087;-33.874;151.240;2023-03-01T00:33:08;27.80;99.90
20795;DHT22;28087;-33.874;151.240;2023-03-01T00:35:45;27.90;99.90
20795;DHT22;28087;-33.874;151.240;2023-03-01T00:38:27;27.90;99.90
20795;DHT22;28087;-33.874;151.240;2023-03-01T00:41:35;27.90;99.90
20795;DHT22;28087;-33.874;151.240;2023-03-01T00:44:32;27.90;99.90
20795;DHT22;28087;-33.874;151.240;2023-03-01T00:47:34;27.90;99.90
20795;DHT22;28087;-33.874;151.240;2023-03-01T00:50:28;27.90;99.90
20795;DHT22;28087;-33.874;151.240;2023-03-01T00:53:30;27.90;99.90
20795;DHT22;28087;-33.874;151.240;2023-03-01T00:56:37;27.90;99.90
20795;DHT22;28087;-33.874;151.240;2023-03-01T00:59:46;28.00;99.90
20795;DHT22;28087;-33.874;151.240;2023-03-01T01:02:49;28.10;99.90
20795;DHT22;28087;-33.874;151.240;2023-03-01T01:05:56;28.30;99.90
20795;DHT22;28087;-33.874;151.240;2023-03-01T01:09:01;28.20;99.90
20795;DHT22;28087;-33.874;151.240;2023-03-01T01:11:48;28.20;99.90
20795;DHT22;28087;-33.874;151.240;2023-03-01T01:14:49;28.10;99.90
20795;DHT22;28087;-33.874;151.240;2023-03-01T01:17:51;28.10;99.90
20795;DHT22;28087;-33.874;151.240;2023-03-01T01:20:57;27.90;99.90
20795;DHT22;28087;-33.874;151.240;2023-03-01T01:24:04;27.90;99.90
20795;DHT22;28087;-33.874;151.240;2023-03-01T01:27:11;27.60;99.90
20795;DHT22;28087;-33.874;151.240;2023-03-01T01:30:14;27.50;99.90
20795;DHT22;28087;-33.874;151.240;2023-03-01T01:33:18;27.50;99.90
20795;DHT22;28087;-33.874;151.240;2023-03-01T01:36:18;27.60;99.90
20795;DHT22;28087;-33.874;151.240;2023-03-01T01:39:24;27.50;99.90
20795;DHT22;28087;-33.874;151.240;2023-03-01T01:42:32;27.60;99.90
20795;DHT22;28087;-33.874;151.240;2023-03-01T01:45:32;27.80;99.90
20795;DHT22;28087;-33.874;151.240;2023-03-01T01:48:41;28.00;99.90
20795;DHT22;28087;-33.874;151.240;2023-03-01T01:51:45;28.30;99.90
20795;DHT22;28087;-33.874;151.240;2023-03-01T01:54:44;28.80;99.90
20795;DHT22;28087;-33.874;151.240;2023-03-01T01:57:51;29.40;99.90
20795;DHT22;28087;-33.874;151.240;2023-03-01T02:01:00;30.10;99.90
20795;DHT22;28087;-33.874;151.240;2023-03-01T02:04:00;30.10;99.90
20795;DHT22;28087;-33.874;151.240;2023-03-01T02:07:07;29.90;99.90
20795;DHT22;28087;-33.874;151.240;2023-03-01T02:10:14;29.50;99.90
20795;DHT22;28087;-33.874;151.240;2023-03-01T02:13:06;29.10;99.90
20795;DHT22;28087;-33.874;151.240;2023-03-01T02:16:14;29.00;99.90
20795;DHT22;28087;-33.874;151.240;2023-03-01T02:19:27;28.70;99.90
20795;DHT22;28087;-33.874;151.240;2023-03-01T02:22:34;28.70;99.90
20795;DHT22;28087;-33.874;151.240;2023-03-01T02:25:46;28.50;99.90
20795;DHT22;28087;-33.874;151.240;2023-03-01T02:28:46;28.60;99.90
20795;DHT22;28087;-33.874;151.240;2023-03-01T02:31:52;28.70;99.90
20795;DHT22;28087;-33.874;151.240;2023-03-01T02:35:02;28.70;99.90
20795;DHT22;28087;-33.874;151.240;2023-03-01T02:38:10;28.60;99.90
20795;DHT22;28087;-33.874;151.240;2023-03-01T02:41:15;28.50;99.90
20795;DHT22;28087;-33.874;151.240;2023-03-01T02:44:08;28.60;99.90
20795;DHT22;28087;-33.874;151.240;2023-03-01T02:47:15;28.60;99.90
20795;DHT22;28087;-33.874;151.240;2023-03-01T02:50:31;28.60;99.90
20795;DHT22;28087;-33.874;151.240;2023-03-01T02:53:55;28.40;99.90
20795;DHT22;28087;-33.874;151.240;2023-03-01T02:57:00;28.20;99.90
20795;DHT22;28087;-33.874;151.240;2023-03-01T03:00:10;28.10;99.90
20795;DHT22;28087;-33.874;151.240;2023-03-01T03:03:20;27.90;99.90
20795;DHT22;28087;-33.874;151.240;2023-03-01T03:06:21;27.80;99.90
20795;DHT22;28087;-33.874;151.240;2023-03-01T03:09:14;27.80;99.90
20795;DHT22;28087;-33.874;151.240;2023-03-01T03:12:20;27.80;99.90
20795;DHT22;28087;-33.874;151.240;2023-03-01T03:15:28;27.90;99.90
20795;DHT22;28087;-33.874;151.240;2023-03-01T03:18:35;28.10;99.90
20795;DHT22;28087;-33.874;151.240;2023-03-01T03:21:42;28.20;99.90
20795;DHT22;28087;-33.874;151.240;2023-03-01T03:24:49;28.40;99.90
20795;DHT22;28087;-33.874;151.240;2023-03-01T03:27:50;28.60;99.90
20795;DHT22;28087;-33.874;151.240;2023-03-01T03:30:58;28.60;99.90
20795;DHT22;28087;-33.874;151.240;2023-03-01T03:34:00;28.40;99.90
20795;DHT22;28087;-33.874;151.240;2023-03-01T03:37:16;28.20;99.90
20795;DHT22;28087;-33.874;151.240;2023-03-01T03:40:39;27.90;99.90
20795;DHT22;28087;-33.874;151.240;2023-03-01T03:43:39;28.00;99.90
20795;DHT22;28087;-33.874;151.240;2023-03-01T03:46:46;27.90;99.90
20795;DHT22;28087;-33.874;151.240;2023-03-01T03:49:53;27.80;99.90
20795;DHT22;28087;-33.874;151.240;2023-03-01T03:53:02;27.80;99.90
20795;DHT22;28087;-33.874;151.240;2023-03-01T03:56:07;27.60;99.90
20795;DHT22;28087;-33.874;151.240;2023-03-01T03:59:02;27.60;99.90
20795;DHT22;28087;-33.874;151.240;2023-03-01T04:02:10;27.70;99.90
20795;DHT22;28087;-33.874;151.240;2023-03-01T04:05:13;27.60;99.90
20795;DHT22;28087;-33.874;151.240;2023-03-01T04:08:17;27.60;99.90
20795;DHT22;28087;-33.874;151.240;2023-03-01T04:11:20;27.70;99.90
20795;DHT22;28087;-33.874;151.240;2023-03-01T04:14:28;27.60;99.90
20795;DHT22;28087;-33.874;151.240;2023-03-01T04:17:39;27.50;99.90
20795;DHT22;28087;-33.874;151.240;2023-03-01T04:20:46;27.50;99.90
20795;DHT22;28087;-33.874;151.240;2023-03-01T04:23:47;27.40;99.90
20795;DHT22;28087;-33.874;151.240;2023-03-01T04:26:56;27.30;99.90
20795;DHT22;28087;-33.874;151.240;2023-03-01T04:30:05;27.10;99.90
20795;DHT22;28087;-33.874;151.240;2023-03-01T04:33:13;27.00;99.90
20795;DHT22;28087;-33.874;151.240;2023-03-01T04:36:16;27.10;99.90
20795;DHT22;28087;-33.874;151.240;2023-03-01T04:39:19;27.10;99.90
20795;DHT22;28087;-33.874;151.240;2023-03-01T04:42:27;27.30;99.90
20795;DHT22;28087;-33.874;151.240;2023-03-01T04:45:26;27.30;99.90
20795;DHT22;28087;-33.874;151.240;2023-03-01T04:48:35;27.30;99.90
20795;DHT22;28087;-33.874;151.240;2023-03-01T04:51:43;27.20;99.90
20795;DHT22;28087;-33.874;151.240;2023-03-01T04:54:46;27.00;99.90
20795;DHT22;28087;-33.874;151.240;2023-03-01T04:57:55;26.90;99.90
20795;DHT22;28087;-33.874;151.240;2023-03-01T05:01:08;26.80;99.90
20795;DHT22;28087;-33.874;151.240;2023-03-01T05:04:13;26.70;99.90
20795;DHT22;28087;-33.874;151.240;2023-03-01T05:07:19;26.60;99.90
20795;DHT22;28087;-33.874;151.240;2023-03-01T05:10:19;26.60;99.90
20795;DHT22;28087;-33.874;151.240;2023-03-01T05:13:26;26.70;99.90
20795;DHT22;28087;-33.874;151.240;2023-03-01T05:16:30;26.60;99.90
20795;DHT22;28087;-33.874;151.240;2023-03-01T05:19:33;26.40;99.90
20795;DHT22;28087;-33.874;151.240;2023-03-01T05:22:39;26.30;99.90
20795;DHT22;28087;-33.874;151.240;2023-03-01T05:25:43;26.20;99.90
20795;DHT22;28087;-33.874;151.240;2023-03-01T05:28:51;26.20;99.90
20795;DHT22;28087;-33.874;151.240;2023-03-01T05:31:59;26.10;99.90
20795;DHT22;28087;-33.874;151.240;2023-03-01T05:35:08;26.10;99.90
20795;DHT22;28087;-33.874;151.240;2023-03-01T05:38:15;26.00;99.90
20795;DHT22;28087;-33.874;151.240;2023-03-01T05:41:21;26.00;99.90
20795;DHT22;28087;-33.874;151.240;2023-03-01T05:44:23;25.90;99.90
20795;DHT22;28087;-33.874;151.240;2023-03-01T05:47:30;25.80;99.90
20795;DHT22;28087;-33.874;151.240;2023-03-01T05:50:43;25.70;99.90
20795;DHT22;28087;-33.874;151.240;2023-03-01T05:53:50;25.70;99.90
20795;DHT22;28087;-33.874;151.240;2023-03-01T05:56:57;25.60;99.90
20795;DHT22;28087;-33.874;151.240;2023-03-01T06:00:02;25.50;99.90
20795;DHT22;28087;-33.874;151.240;2023-03-01T06:03:11;25.50;99.90
20795;DHT22;28087;-33.874;151.240;2023-03-01T06:06:20;25.40;99.90
20795;DHT22;28087;-33.874;151.240;2023-03-01T06:09:26;25.40;99.90
20795;DHT22;28087;-33.874;151.240;2023-03-01T06:12:33;25.20;99.90
20795;DHT22;28087;-33.874;151.240;2023-03-01T06:15:36;25.20;99.90
20795;DHT22;28087;-33.874;151.240;2023-03-01T06:18:41;25.10;99.90
20795;DHT22;28087;-33.874;151.240;2023-03-01T06:22:10;25.00;99.90
20795;DHT22;28087;-33.874;151.240;2023-03-01T06:25:12;25.00;99.90
20795;DHT22;28087;-33.874;151.240;2023-03-01T06:28:19;24.90;99.90
20795;DHT22;28087;-33.874;151.240;2023-03-01T06:31:28;24.80;99.90
20795;DHT22;28087;-33.874;151.240;2023-03-01T06:35:02;24.80;99.90
20795;DHT22;28087;-33.874;151.240;2023-03-01T06:38:10;24.80;99.90
20795;DHT22;28087;-33.874;151.240;2023-03-01T06:41:18;24.90;99.90
20795;DHT22;28087;-33.874;151.240;2023-03-01T06:44:24;24.90;99.90
20795;DHT22;28087;-33.874;151.240;2023-03-01T06:47:26;24.90;99.90
20795;DHT22;28087;-33.874;151.240;2023-03-01T06:50:33;24.90;99.90
20795;DHT22;28087;-33.874;151.240;2023-03-01T06:53:42;24.90;99.90
20795;DHT22;28087;-33.874;151.240;2023-03-01T06:56:51;25.00;99.90
20795;DHT22;28087;-33.874;151.240;2023-03-01T06:59:45;24.90;99.90
20795;DHT22;28087;-33.874;151.240;2023-03-01T07:02:51;24.80;99.90
20795;DHT22;28087;-33.874;151.240;2023-03-01T07:05:59;24.80;99.90
20795;DHT22;28087;-33.874;151.240;2023-03-01T07:09:07;24.80;99.90
20795;DHT22;28087;-33.874;151.240;2023-03-01T07:12:14;24.90;99.90
20795;DHT22;28087;-33.874;151.240;2023-03-01T07:15:11;24.80;99.90
20795;DHT22;28087;-33.874;151.240;2023-03-01T07:18:18;24.80;99.90
20795;DHT22;28087;-33.874;151.240;2023-03-01T07:21:24;24.80;99.90
20795;DHT22;28087;-33.874;151.240;2023-03-01T07:24:33;24.80;99.90
20795;DHT22;28087;-33.874;151.240;2023-03-01T07:27:40;24.80;99.90
20795;DHT22;28087;-33.874;151.240;2023-03-01T07:30:45;24.80;99.90
20795;DHT22;28087;-33.874;151.240;2023-03-01T07:33:52;24.80;99.90
20795;DHT22;28087;-33.874;151.240;2023-03-01T07:36:55;24.80;99.90
20795;DHT22;28087;-33.874;151.240;2023-03-01T07:40:04;24.80;99.90
20795;DHT22;28087;-33.874;151.240;2023-03-01T07:43:11;24.80;99.90
20795;DHT22;28087;-33.874;151.240;2023-03-01T07:46:15;24.80;99.90
20795;DHT22;28087;-33.874;151.240;2023-03-01T07:48:57;24.80;99.90
20795;DHT22;28087;-33.874;151.240;2023-03-01T07:51:32;24.70;99.90
20795;DHT22;28087;-33.874;151.240;2023-03-01T07:54:24;24.70;99.90
20795;DHT22;28087;-33.874;151.240;2023-03-01T07:57:28;24.80;99.90
20795;DHT22;28087;-33.874;151.240;2023-03-01T08:00:22;24.80;99.90
20795;DHT22;28087;-33.874;151.240;2023-03-01T08:03:10;24.80;99.90
20795;DHT22;28087;-33.874;151.240;2023-03-01T08:05:51;24.80;99.90
20795;DHT22;28087;-33.874;151.240;2023-03-01T08:08:28;24.80;99.90
20795;DHT22;28087;-33.874;151.240;2023-03-01T08:11:05;24.80;99.90
20795;DHT22;28087;-33.874;151.240;2023-03-01T08:13:58;24.90;99.90
20795;DHT22;28087;-33.874;151.240;2023-03-01T08:16:50;24.90;99.90
20795;DHT22;28087;-33.874;151.240;2023-03-01T08:19:42;24.90;99.90
20795;DHT22;28087;-33.874;151.240;2023-03-01T08:22:33;24.90;99.90
20795;DHT22;28087;-33.874;151.240;2023-03-01T08:25:09;24.80;99.90
20795;DHT22;28087;-33.874;151.240;2023-03-01T08:27:45;24.80;99.90
20795;DHT22;28087;-33.874;151.240;2023-03-01T08:30:25;24.80;99.90
20795;DHT22;28087;-33.874;151.240;2023-03-01T08:33:01;24.80;99.90
20795;DHT22;28087;-33.874;151.240;2023-03-01T08:35:37;24.70;99.90
20795;DHT22;28087;-33.874;151.240;2023-03-01T08:38:15;24.70;99.90
20795;DHT22;28087;-33.874;151.240;2023-03-01T08:40:51;24.70;99.90
20795;DHT22;28087;-33.874;151.240;2023-03-01T08:43:27;24.70;99.90
20795;DHT22;28087;-33.874;151.240;2023-03-01T08:46:05;24.70;99.90
20795;DHT22;28087;-33.874;151.240;2023-03-01T08:48:40;24.70;99.90
20795;DHT22;28087;-33.874;151.240;2023-03-01T08:51:17;24.70;99.90
20795;DHT22;28087;-33.874;151.240;2023-03-01T08:53:54;24.60;99.90
20795;DHT22;28087;-33.874;151.240;2023-03-01T08:56:30;24.60;99.90
20795;DHT22;28087;-33.874;151.240;2023-03-01T08:59:05;24.60;99.90
20795;DHT22;28087;-33.874;151.240;2023-03-01T09:01:43;24.60;99.90
20795;DHT22;28087;-33.874;151.240;2023-03-01T09:04:19;24.70;99.90
20795;DHT22;28087;-33.874;151.240;2023-03-01T09:06:54;24.60;99.90
20795;DHT22;28087;-33.874;151.240;2023-03-01T09:09:30;24.60;99.90
20795;DHT22;28087;-33.874;151.240;2023-03-01T09:12:06;24.70;99.90
20795;DHT22;28087;-33.874;151.240;2023-03-01T09:14:41;24.70;99.90
20795;DHT22;28087;-33.874;151.240;2023-03-01T09:17:19;24.60;99.90
20795;DHT22;28087;-33.874;151.240;2023-03-01T09:19:54;24.70;99.90
20795;DHT22;28087;-33.874;151.240;2023-03-01T09:22:34;24.70;99.90
20795;DHT22;28087;-33.874;151.240;2023-03-01T09:25:10;24.80;99.90
20795;DHT22;28087;-33.874;151.240;2023-03-01T09:27:45;24.70;99.90
20795;DHT22;28087;-33.874;151.240;2023-03-01T09:30:21;24.70;99.90
20795;DHT22;28087;-33.874;151.240;2023-03-01T09:33:01;24.70;99.90
20795;DHT22;28087;-33.874;151.240;2023-03-01T09:35:36;24.70;99.90
20795;DHT22;28087;-33.874;151.240;2023-03-01T09:38:19;24.70;99.90
20795;DHT22;28087;-33.874;151.240;2023-03-01T09:40:57;24.70;99.90
20795;DHT22;28087;-33.874;151.240;2023-03-01T09:43:41;24.70;99.90
20795;DHT22;28087;-33.874;151.240;2023-03-01T09:46:19;24.60;99.90
20795;DHT22;28087;-33.874;151.240;2023-03-01T09:48:59;24.60;99.90
20795;DHT22;28087;-33.874;151.240;2023-03-01T09:51:37;24.60;99.90
20795;DHT22;28087;-33.874;151.240;2023-03-01T09:54:12;24.60;99.90
20795;DHT22;28087;-33.874;151.240;2023-03-01T09:57:09;24.60;99.90
20795;DHT22;28087;-33.874;151.240;2023-03-01T09:59:59;24.60;99.90
20795;DHT22;28087;-33.874;151.240;2023-03-01T10:02:41;24.60;99.90
20795;DHT22;28087;-33.874;151.240;2023-03-01T10:05:31;24.60;99.90
20795;DHT22;28087;-33.874;151.240;2023-03-01T10:11:05;24.60;99.90
20795;DHT22;28087;-33.874;151.240;2023-03-01T10:13:56;24.50;99.90
20795;DHT22;28087;-33.874;151.240;2023-03-01T10:16:41;24.60;99.90
20795;DHT22;28087;-33.874;151.240;2023-03-01T10:19:23;24.50;99.90
20795;DHT22;28087;-33.874;151.240;2023-03-01T10:22:04;24.50;99.90
20795;DHT22;28087;-33.874;151.240;2023-03-01T10:24:44;24.50;99.90
20795;DHT22;28087;-33.874;151.240;2023-03-01T10:27:24;24.50;99.90
20795;DHT22;28087;-33.874;151.240;2023-03-01T10:30:09;24.60;99.90
20795;DHT22;28087;-33.874;151.240;2023-03-01T10:32:49;24.60;99.90
20795;DHT22;28087;-33.874;151.240;2023-03-01T10:35:27;24.60;99.90
20795;DHT22;28087;-33.874;151.240;2023-03-01T10:38:09;24.60;99.90
20795;DHT22;28087;-33.874;151.240;2023-03-01T10:40:57;24.60;99.90
20795;DHT22;28087;-33.874;151.240;2023-03-01T10:43:54;24.60;99.90
20795;DHT22;28087;-33.874;151.240;2023-03-01T10:46:45;24.60;99.90
20795;DHT22;28087;-33.874;151.240;2023-03-01T10:49:34;24.70;99.90
20795;DHT22;28087;-33.874;151.240;2023-03-01T10:52:19;24.70;99.90
20795;DHT22;28087;-33.874;151.240;2023-03-01T10:54:58;24.60;99.90
20795;DHT22;28087;-33.874;151.240;2023-03-01T10:57:37;24.60;99.90
20795;DHT22;28087;-33.874;151.240;2023-03-01T11:00:25;24.60;99.90
20795;DHT22;28087;-33.874;151.240;2023-03-01T11:03:10;24.60;99.90
20795;DHT22;28087;-33.874;151.240;2023-03-01T11:05:55;24.60;99.90
20795;DHT22;28087;-33.874;151.240;2023-03-01T11:08:43;24.60;99.90
20795;DHT22;28087;-33.874;151.240;2023-03-01T11:11:29;24.60;99.90
20795;DHT22;28087;-33.874;151.240;2023-03-01T11:14:12;24.60;99.90
20795;DHT22;28087;-33.874;151.240;2023-03-01T11:17:01;24.60;99.90
20795;DHT22;28087;-33.874;151.240;2023-03-01T11:19:38;24.60;99.90
20795;DHT22;28087;-33.874;151.240;2023-03-01T11:22:23;24.60;99.90
20795;DHT22;28087;-33.874;151.240;2023-03-01T11:24:59;24.60;99.90
20795;DHT22;28087;-33.874;151.240;2023-03-01T11:27:44;24.50;99.90
20795;DHT22;28087;-33.874;151.240;2023-03-01T11:30:22;24.50;99.90
20795;DHT22;28087;-33.874;151.240;2023-03-01T11:33:08;24.50;99.90
20795;DHT22;28087;-33.874;151.240;2023-03-01T11:35:54;24.50;99.90
20795;DHT22;28087;-33.874;151.240;2023-03-01T11:38:34;24.50;99.90
20795;DHT22;28087;-33.874;151.240;2023-03-01T11:41:14;24.50;99.90
20795;DHT22;28087;-33.874;151.240;2023-03-01T11:43:54;24.50;99.90
20795;DHT22;28087;-33.874;151.240;2023-03-01T11:46:49;24.50;99.90
20795;DHT22;28087;-33.874;151.240;2023-03-01T11:49:53;24.50;99.90
20795;DHT22;28087;-33.874;151.240;2023-03-01T11:52:37;24.40;99.90
20795;DHT22;28087;-33.874;151.240;2023-03-01T11:55:24;24.40;99.90
20795;DHT22;28087;-33.874;151.240;2023-03-01T11:58:14;24.40;99.90
20795;DHT22;28087;-33.874;151.240;2023-03-01T12:01:16;24.40;99.90
20795;DHT22;28087;-33.874;151.240;2023-03-01T12:04:05;24.40;99.90
20795;DHT22;28087;-33.874;151.240;2023-03-01T12:07:00;24.40;99.90
20795;DHT22;28087;-33.874;151.240;2023-03-01T12:09:54;24.40;99.90
20795;DHT22;28087;-33.874;151.240;2023-03-01T12:12:43;24.40;99.90
20795;DHT22;28087;-33.874;151.240;2023-03-01T12:15:38;24.40;99.90
20795;DHT22;28087;-33.874;151.240;2023-03-01T12:18:30;24.40;99.90
20795;DHT22;28087;-33.874;151.240;2023-03-01T12:21:18;24.40;99.90
20795;DHT22;28087;-33.874;151.240;2023-03-01T12:27:25;24.40;99.90
20795;DHT22;28087;-33.874;151.240;2023-03-01T12:30:16;24.40;99.90
20795;DHT22;28087;-33.874;151.240;2023-03-01T12:33:02;24.40;99.90
20795;DHT22;28087;-33.874;151.240;2023-03-01T12:35:49;24.40;99.90
20795;DHT22;28087;-33.874;151.240;2023-03-01T12:38:36;24.40;99.90
20795;DHT22;28087;-33.874;151.240;2023-03-01T12:41:35;24.30;99.90
20795;DHT22;28087;-33.874;151.240;2023-03-01T12:44:29;24.30;99.90
20795;DHT22;28087;-33.874;151.240;2023-03-01T12:47:16;24.30;99.90
20795;DHT22;28087;-33.874;151.240;2023-03-01T12:49:57;24.20;99.90
20795;DHT22;28087;-33.874;151.240;2023-03-01T12:52:39;24.20;99.90
20795;DHT22;28087;-33.874;151.240;2023-03-01T12:55:24;24.40;99.90
20795;DHT22;28087;-33.874;151.240;2023-03-01T12:58:07;24.30;99.90
20795;DHT22;28087;-33.874;151.240;2023-03-01T13:00:50;24.30;99.90
20795;DHT22;28087;-33.874;151.240;2023-03-01T13:03:33;24.30;99.90
20795;DHT22;28087;-33.874;151.240;2023-03-01T13:06:15;24.30;99.90
20795;DHT22;28087;-33.874;151.240;2023-03-01T13:09:00;24.30;99.90
20795;DHT22;28087;-33.874;151.240;2023-03-01T13:11:42;24.30;99.90
20795;DHT22;28087;-33.874;151.240;2023-03-01T13:14:46;24.30;99.90
20795;DHT22;28087;-33.874;151.240;2023-03-01T13:17:46;24.20;99.90
20795;DHT22;28087;-33.874;151.240;2023-03-01T13:20:24;24.20;99.90
20795;DHT22;28087;-33.874;151.240;2023-03-01T13:23:09;24.20;99.90
20795;DHT22;28087;-33.874;151.240;2023-03-01T13:26:08;24.20;99.90
20795;DHT22;28087;-33.874;151.240;2023-03-01T13:28:53;24.20;99.90
20795;DHT22;28087;-33.874;151.240;2023-03-01T13:31:59;24.20;99.90
20795;DHT22;28087;-33.874;151.240;2023-03-01T13:35:00;24.20;99.90
20795;DHT22;28087;-33.874;151.240;2023-03-01T13:37:38;24.20;99.90
20795;DHT22;28087;-33.874;151.240;2023-03-01T13:43:31;24.20;99.90
20795;DHT22;28087;-33.874;151.240;2023-03-01T13:46:17;24.20;99.90
20795;DHT22;28087;-33.874;151.240;2023-03-01T13:48:54;24.20;99.90
20795;DHT22;28087;-33.874;151.240;2023-03-01T13:51:31;24.20;99.90
20795;DHT22;28087;-33.874;151.240;2023-03-01T13:54:13;24.20;99.90
20795;DHT22;28087;-33.874;151.240;2023-03-01T13:56:49;24.20;99.90
20795;DHT22;28087;-33.874;151.240;2023-03-01T13:59:26;24.20;99.90
20795;DHT22;28087;-33.874;151.240;2023-03-01T14:02:02;24.20;99.90
20795;DHT22;28087;-33.874;151.240;2023-03-01T14:04:38;24.20;99.90
20795;DHT22;28087;-33.874;151.240;2023-03-01T14:07:17;24.20;99.90
20795;DHT22;28087;-33.874;151.240;2023-03-01T14:09:55;24.20;99.90
20795;DHT22;28087;-33.874;151.240;2023-03-01T14:12:42;24.20;99.90
20795;DHT22;28087;-33.874;151.240;2023-03-01T14:15:27;24.20;99.90
20795;DHT22;28087;-33.874;151.240;2023-03-01T14:18:06;24.20;99.90
20795;DHT22;28087;-33.874;151.240;2023-03-01T14:20:45;24.20;99.90
20795;DHT22;28087;-33.874;151.240;2023-03-01T14:23:25;24.30;99.90
20795;DHT22;28087;-33.874;151.240;2023-03-01T14:26:01;24.20;99.90
20795;DHT22;28087;-33.874;151.240;2023-03-01T14:28:37;24.30;99.90
20795;DHT22;28087;-33.874;151.240;2023-03-01T14:31:38;24.20;99.90
20795;DHT22;28087;-33.874;151.240;2023-03-01T14:34:24;24.30;99.90
20795;DHT22;28087;-33.874;151.240;2023-03-01T14:37:14;24.30;99.90
20795;DHT22;28087;-33.874;151.240;2023-03-01T14:39:53;24.20;99.90
20795;DHT22;28087;-33.874;151.240;2023-03-01T14:42:30;24.30;99.90
20795;DHT22;28087;-33.874;151.240;2023-03-01T14:45:09;24.30;99.90
20795;DHT22;28087;-33.874;151.240;2023-03-01T14:47:49;24.20;99.90
20795;DHT22;28087;-33.874;151.240;2023-03-01T14:50:27;24.20;99.90
20795;DHT22;28087;-33.874;151.240;2023-03-01T14:53:05;24.20;99.90
20795;DHT22;28087;-33.874;151.240;2023-03-01T14:55:44;24.20;99.90
20795;DHT22;28087;-33.874;151.240;2023-03-01T14:58:22;24.20;99.90
20795;DHT22;28087;-33.874;151.240;2023-03-01T15:00:59;24.20;99.90
20795;DHT22;28087;-33.874;151.240;2023-03-01T15:03:42;24.20;99.90
20795;DHT22;28087;-33.874;151.240;2023-03-01T15:06:20;24.20;99.90
20795;DHT22;28087;-33.874;151.240;2023-03-01T15:08:59;24.10;99.90
20795;DHT22;28087;-33.874;151.240;2023-03-01T15:11:34;24.10;99.90
20795;DHT22;28087;-33.874;151.240;2023-03-01T15:14:39;24.10;99.90
20795;DHT22;28087;-33.874;151.240;2023-03-01T15:17:32;24.10;99.90
20795;DHT22;28087;-33.874;151.240;2023-03-01T15:20:18;24.10;99.90
20795;DHT22;28087;-33.874;151.240;2023-03-01T15:22:58;24.10;99.90
20795;DHT22;28087;-33.874;151.240;2023-03-01T15:25:43;24.00;99.90
20795;DHT22;28087;-33.874;151.240;2023-03-01T15:28:20;24.00;99.90
20795;DHT22;28087;-33.874;151.240;2023-03-01T15:30:58;24.00;99.90
20795;DHT22;28087;-33.874;151.240;2023-03-01T15:33:39;24.00;99.90
20795;DHT22;28087;-33.874;151.240;2023-03-01T15:36:43;24.00;99.90
20795;DHT22;28087;-33.874;151.240;2023-03-01T15:39:37;24.00;99.90
20795;DHT22;28087;-33.874;151.240;2023-03-01T15:42:37;23.90;99.90
20795;DHT22;28087;-33.874;151.240;2023-03-01T15:45:22;23.90;99.90
20795;DHT22;28087;-33.874;151.240;2023-03-01T15:48:00;23.90;99.90
20795;DHT22;28087;-33.874;151.240;2023-03-01T15:50:37;24.00;99.90
20795;DHT22;28087;-33.874;151.240;2023-03-01T15:53:17;24.00;99.90
20795;DHT22;28087;-33.874;151.240;2023-03-01T15:55:52;24.00;99.90
20795;DHT22;28087;-33.874;151.240;2023-03-01T15:58:28;24.00;99.90
20795;DHT22;28087;-33.874;151.240;2023-03-01T16:01:07;24.00;99.90
20795;DHT22;28087;-33.874;151.240;2023-03-01T16:03:46;24.00;99.90
20795;DHT22;28087;-33.874;151.240;2023-03-01T16:06:21;24.00;99.90
20795;DHT22;28087;-33.874;151.240;2023-03-01T16:08:59;24.00;99.90
20795;DHT22;28087;-33.874;151.240;2023-03-01T16:11:36;24.10;99.90
20795;DHT22;28087;-33.874;151.240;2023-03-01T16:14:13;24.00;99.90
20795;DHT22;28087;-33.874;151.240;2023-03-01T16:16:49;24.00;99.90
20795;DHT22;28087;-33.874;151.240;2023-03-01T16:19:24;24.00;99.90
20795;DHT22;28087;-33.874;151.240;2023-03-01T16:21:59;24.00;99.90
20795;DHT22;28087;-33.874;151.240;2023-03-01T16:24:37;24.00;99.90
20795;DHT22;28087;-33.874;151.240;2023-03-01T16:27:13;24.00;99.90
20795;DHT22;28087;-33.874;151.240;2023-03-01T16:29:48;24.00;99.90
20795;DHT22;28087;-33.874;151.240;2023-03-01T16:32:24;23.90;99.90
20795;DHT22;28087;-33.874;151.240;2023-03-01T16:35:00;23.90;99.90
20795;DHT22;28087;-33.874;151.240;2023-03-01T16:37:36;23.80;99.90
20795;DHT22;28087;-33.874;151.240;2023-03-01T16:40:20;23.80;99.90
20795;DHT22;28087;-33.874;151.240;2023-03-01T16:42:56;23.80;99.90
20795;DHT22;28087;-33.874;151.240;2023-03-01T16:45:34;23.80;99.90
20795;DHT22;28087;-33.874;151.240;2023-03-01T16:48:09;23.80;99.90
20795;DHT22;28087;-33.874;151.240;2023-03-01T16:50:45;23.80;99.90
20795;DHT22;28087;-33.874;151.240;2023-03-01T16:53:20;23.80;99.90
20795;DHT22;28087;-33.874;151.240;2023-03-01T16:55:58;23.80;99.90
20795;DHT22;28087;-33.874;151.240;2023-03-01T16:58:34;23.80;99.90
20795;DHT22;28087;-33.874;151.240;2023-03-01T17:01:13;23.80;99.90
20795;DHT22;28087;-33.874;151.240;2023-03-01T17:03:50;23.80;99.90
20795;DHT22;28087;-33.874;151.240;2023-03-01T17:06:26;23.80;99.90
20795;DHT22;28087;-33.874;151.240;2023-03-01T17:09:01;23.70;99.90
20795;DHT22;28087;-33.874;151.240;2023-03-01T17:11:39;23.60;99.90
20795;DHT22;28087;-33.874;151.240;2023-03-01T17:14:14;23.60;99.90
20795;DHT22;28087;-33.874;151.240;2023-03-01T17:16:49;23.70;99.90
20795;DHT22;28087;-33.874;151.240;2023-03-01T17:19:26;23.70;99.90
20795;DHT22;28087;-33.874;151.240;2023-03-01T17:22:01;23.70;99.90